createdAt,value
2017-08-23T00:01:18.416Z,16.30
2017-08-23T00:03:44.926Z,16.20
2017-08-23T00:06:11.242Z,16.10
2017-08-23T00:08:37.539Z,16.00
2017-08-23T00:11:04.130Z,16.00
2017-08-23T00:13:30.389Z,16.00
2017-08-23T00:15:56.641Z,16.00
2017-08-23T00:18:22.927Z,16.00
2017-08-23T00:20:49.220Z,16.00
2017-08-23T00:23:15.515Z,16.00
2017-08-23T00:25:41.784Z,16.00
2017-08-23T00:28:08.141Z,15.90
2017-08-23T00:30:34.409Z,15.90
2017-08-23T00:33:00.736Z,15.90
2017-08-23T00:35:27.045Z,15.90
2017-08-23T00:37:53.624Z,15.90
2017-08-23T00:40:19.898Z,15.80
2017-08-23T00:42:46.192Z,15.80
2017-08-23T00:45:12.496Z,15.80
2017-08-23T00:47:38.780Z,15.80
2017-08-23T00:50:05.131Z,15.80
2017-08-23T00:52:31.458Z,15.60
2017-08-23T00:54:57.785Z,15.50
2017-08-23T00:57:24.082Z,15.50
2017-08-23T00:59:50.376Z,15.40
2017-08-23T01:02:16.687Z,15.40
2017-08-23T01:04:42.970Z,15.30
2017-08-23T01:07:09.269Z,15.40
2017-08-23T01:09:35.567Z,15.30
2017-08-23T01:12:01.863Z,15.30
2017-08-23T01:14:28.146Z,15.30
2017-08-23T01:16:54.405Z,15.40
2017-08-23T01:19:20.712Z,15.40
2017-08-23T01:21:47.026Z,15.50
2017-08-23T01:24:13.325Z,15.60
2017-08-23T01:26:39.605Z,15.60
2017-08-23T01:29:06.251Z,15.60
2017-08-23T01:31:32.582Z,15.50
2017-08-23T01:33:58.874Z,15.60
2017-08-23T01:36:25.190Z,15.60
2017-08-23T01:38:51.474Z,15.50
2017-08-23T01:41:17.742Z,15.60
2017-08-23T01:43:44.035Z,15.60
2017-08-23T01:46:10.610Z,15.60
2017-08-23T01:48:36.890Z,15.60
2017-08-23T01:51:03.171Z,15.60
2017-08-23T01:53:29.467Z,15.80
2017-08-23T01:55:55.724Z,15.80
2017-08-23T01:58:22.009Z,15.80
2017-08-23T02:00:48.318Z,15.90
2017-08-23T02:03:14.593Z,15.80
2017-08-23T02:05:40.848Z,15.80
2017-08-23T02:08:08.121Z,15.80
2017-08-23T02:10:34.438Z,15.80
2017-08-23T02:13:00.722Z,15.90
2017-08-23T02:15:26.990Z,16.00
2017-08-23T02:17:53.286Z,16.00
2017-08-23T02:20:19.594Z,16.10
2017-08-23T02:22:45.892Z,16.10
2017-08-23T02:25:12.223Z,16.20
2017-08-23T02:27:38.543Z,16.10
2017-08-23T02:30:04.825Z,16.20
2017-08-23T02:32:31.142Z,16.10
2017-08-23T02:34:57.428Z,16.10
2017-08-23T02:37:23.743Z,16.10
2017-08-23T02:39:50.025Z,16.10
2017-08-23T02:42:16.339Z,16.10
2017-08-23T02:44:42.642Z,16.10
2017-08-23T02:47:08.894Z,16.10
2017-08-23T02:49:35.203Z,16.10
2017-08-23T02:52:01.492Z,16.20
2017-08-23T02:54:27.806Z,16.10
2017-08-23T02:56:54.097Z,16.10
2017-08-23T02:59:20.685Z,16.10
2017-08-23T03:01:46.976Z,16.10
2017-08-23T03:04:13.255Z,16.20
2017-08-23T03:06:39.568Z,16.20
2017-08-23T03:09:05.831Z,16.10
2017-08-23T03:11:32.158Z,16.10
2017-08-23T03:13:58.473Z,16.10
2017-08-23T03:16:24.758Z,16.10
2017-08-23T03:18:51.027Z,16.10
2017-08-23T03:21:17.362Z,16.10
2017-08-23T03:23:43.668Z,16.00
2017-08-23T03:26:09.980Z,16.00
2017-08-23T03:28:36.306Z,15.90
2017-08-23T03:31:02.604Z,15.80
2017-08-23T03:33:28.910Z,15.80
2017-08-23T03:35:55.206Z,15.90
2017-08-23T03:38:21.883Z,16.10
2017-08-23T03:40:48.157Z,16.20
2017-08-23T03:43:14.425Z,16.10
2017-08-23T03:45:40.723Z,16.10
2017-08-23T03:48:06.994Z,16.10
2017-08-23T03:50:33.265Z,16.00
2017-08-23T03:52:59.571Z,16.00
2017-08-23T03:55:25.857Z,16.10
2017-08-23T03:57:52.155Z,16.00
2017-08-23T04:00:18.479Z,16.00
2017-08-23T04:02:44.790Z,16.10
2017-08-23T04:05:11.404Z,16.10
2017-08-23T04:07:38.477Z,16.10
2017-08-23T04:10:04.762Z,16.10
2017-08-23T04:12:31.095Z,16.10
2017-08-23T04:14:57.358Z,16.10
2017-08-23T04:17:23.646Z,16.10
2017-08-23T04:19:49.901Z,16.10
2017-08-23T04:22:16.201Z,16.10
2017-08-23T04:24:42.494Z,16.10
2017-08-23T04:27:09.082Z,16.00
2017-08-23T04:29:35.389Z,16.10
2017-08-23T04:32:01.678Z,16.10
2017-08-23T04:34:27.953Z,16.10
2017-08-23T04:36:54.216Z,16.10
2017-08-23T04:39:20.549Z,16.10
2017-08-23T04:41:46.837Z,16.10
2017-08-23T04:44:13.122Z,16.00
2017-08-23T04:46:39.416Z,16.00
2017-08-23T04:49:05.730Z,16.00
2017-08-23T04:51:32.014Z,15.90
2017-08-23T04:53:58.287Z,15.90
2017-08-23T04:56:24.582Z,15.80
2017-08-23T04:58:50.874Z,15.80
2017-08-23T05:01:17.181Z,15.80
2017-08-23T05:03:43.433Z,15.80
2017-08-23T05:06:10.020Z,15.90
2017-08-23T05:08:36.332Z,16.00
2017-08-23T05:11:02.626Z,16.10
2017-08-23T05:13:28.923Z,16.30
2017-08-23T05:15:55.272Z,16.50
2017-08-23T05:18:21.571Z,16.60
2017-08-23T05:20:47.865Z,16.70
2017-08-23T05:23:14.171Z,16.60
2017-08-23T05:25:40.451Z,16.90
2017-08-23T05:28:06.773Z,17.00
2017-08-23T05:30:33.073Z,17.10
2017-08-23T05:32:59.370Z,17.10
2017-08-23T05:35:25.669Z,16.90
2017-08-23T05:37:51.954Z,16.90
2017-08-23T05:40:18.526Z,17.10
2017-08-23T05:42:44.823Z,17.20
2017-08-23T05:45:11.149Z,17.30
2017-08-23T05:47:37.453Z,17.50
2017-08-23T05:50:03.758Z,17.60
2017-08-23T05:52:30.083Z,17.50
2017-08-23T05:54:56.375Z,17.50
2017-08-23T05:57:22.926Z,17.40
2017-08-23T05:59:49.239Z,17.50
2017-08-23T06:02:15.552Z,17.50
2017-08-23T06:04:41.850Z,17.70
2017-08-23T06:07:08.153Z,17.90
2017-08-23T06:09:34.774Z,18.00
2017-08-23T06:12:01.055Z,18.00
2017-08-23T06:14:27.328Z,18.10
2017-08-23T06:16:53.622Z,18.20
2017-08-23T06:19:19.906Z,18.20
2017-08-23T06:21:46.533Z,18.30
2017-08-23T06:24:12.834Z,18.20
2017-08-23T06:26:39.097Z,18.20
2017-08-23T06:29:05.444Z,18.10
2017-08-23T06:31:31.740Z,18.30
2017-08-23T06:33:58.067Z,18.40
2017-08-23T06:36:24.379Z,18.50
2017-08-23T06:38:51.150Z,18.40
2017-08-23T06:41:17.521Z,18.40
2017-08-23T06:43:43.794Z,18.30
2017-08-23T06:46:10.252Z,18.50
2017-08-23T06:48:36.594Z,18.60
2017-08-23T06:51:03.175Z,18.60
2017-08-23T06:53:29.448Z,18.40
2017-08-23T06:55:55.778Z,18.40
2017-08-23T06:58:22.084Z,18.50
2017-08-23T07:00:48.386Z,18.50
2017-08-23T07:03:14.664Z,18.70
2017-08-23T07:05:40.941Z,19.10
2017-08-23T07:08:07.488Z,19.40
2017-08-23T07:10:33.762Z,19.70
2017-08-23T07:13:00.052Z,19.90
2017-08-23T07:15:26.349Z,20.00
2017-08-23T07:17:52.662Z,20.10
2017-08-23T07:20:18.979Z,20.10
2017-08-23T07:22:45.270Z,20.20
2017-08-23T07:25:11.611Z,20.00
2017-08-23T07:27:37.934Z,20.00
2017-08-23T07:30:04.249Z,19.90
2017-08-23T07:32:30.565Z,19.70
2017-08-23T07:34:56.855Z,19.80
2017-08-23T07:37:23.130Z,20.00
2017-08-23T07:39:49.483Z,20.00
2017-08-23T07:42:15.762Z,19.80
2017-08-23T07:44:42.088Z,20.00
2017-08-23T07:47:08.393Z,20.30
2017-08-23T07:49:34.714Z,20.60
2017-08-23T07:52:01.034Z,20.90
2017-08-23T07:54:27.305Z,21.30
2017-08-23T07:56:53.605Z,21.70
2017-08-23T07:59:19.881Z,21.90
2017-08-23T08:01:46.557Z,22.00
2017-08-23T08:04:12.820Z,22.10
2017-08-23T08:06:39.105Z,22.20
2017-08-23T08:09:05.380Z,22.30
2017-08-23T08:11:31.670Z,22.20
2017-08-23T08:13:58.003Z,22.30
2017-08-23T08:16:24.277Z,22.20
2017-08-23T08:18:50.581Z,22.20
2017-08-23T08:21:16.841Z,22.20
2017-08-23T08:23:43.120Z,22.20
2017-08-23T08:26:09.681Z,22.10
2017-08-23T08:28:35.961Z,21.90
2017-08-23T08:31:02.219Z,21.90
2017-08-23T08:33:28.514Z,21.70
2017-08-23T08:35:54.841Z,21.80
2017-08-23T08:38:21.129Z,21.50
2017-08-23T08:40:47.393Z,21.40
2017-08-23T08:43:13.677Z,21.30
2017-08-23T08:45:39.970Z,21.30
2017-08-23T08:48:06.258Z,21.30
2017-08-23T08:50:32.566Z,21.50
2017-08-23T08:52:58.849Z,21.70
2017-08-23T08:55:25.161Z,21.80
2017-08-23T08:57:52.193Z,21.90
2017-08-23T09:00:18.880Z,21.70
2017-08-23T09:02:45.146Z,21.80
2017-08-23T09:05:11.417Z,22.00
2017-08-23T09:07:37.685Z,22.10
2017-08-23T09:10:03.985Z,22.20
2017-08-23T09:12:30.289Z,22.30
2017-08-23T09:14:56.578Z,22.50
2017-08-23T09:17:22.886Z,22.70
2017-08-23T09:19:49.173Z,22.80
2017-08-23T09:22:15.448Z,22.80
2017-08-23T09:24:41.734Z,22.90
2017-08-23T09:27:07.982Z,22.90
2017-08-23T09:29:34.521Z,22.90
2017-08-23T09:32:01.172Z,22.90
2017-08-23T09:34:27.435Z,23.00
2017-08-23T09:36:53.703Z,23.10
2017-08-23T09:39:19.982Z,23.10
2017-08-23T09:41:46.271Z,23.20
2017-08-23T09:44:12.532Z,23.20
2017-08-23T09:46:39.286Z,23.40
2017-08-23T09:49:05.563Z,23.50
2017-08-23T09:51:31.827Z,23.60
2017-08-23T09:53:58.126Z,23.50
2017-08-23T09:56:24.386Z,23.70
2017-08-23T09:58:50.645Z,23.80
2017-08-23T10:01:16.911Z,24.00
2017-08-23T10:03:43.506Z,24.10
2017-08-23T10:06:09.780Z,24.20
2017-08-23T10:08:36.055Z,24.30
2017-08-23T10:11:02.338Z,24.50
2017-08-23T10:13:28.671Z,24.70
2017-08-23T10:15:55.037Z,24.90
2017-08-23T10:18:21.379Z,25.00
2017-08-23T10:20:47.954Z,25.00
2017-08-23T10:23:14.230Z,25.10
2017-08-23T10:25:40.500Z,25.10
2017-08-23T10:28:06.822Z,25.20
2017-08-23T10:30:33.084Z,25.30
2017-08-23T10:32:59.731Z,25.50
2017-08-23T10:35:26.020Z,25.60
2017-08-23T10:37:52.293Z,25.70
2017-08-23T10:40:18.656Z,25.90
2017-08-23T10:42:45.928Z,26.10
2017-08-23T10:45:12.244Z,26.10
2017-08-23T10:47:38.547Z,26.40
2017-08-23T10:50:04.810Z,26.70
2017-08-23T10:52:31.103Z,27.00
2017-08-23T10:54:57.377Z,27.40
2017-08-23T10:57:23.673Z,27.70
2017-08-23T10:59:49.959Z,28.20
2017-08-23T11:02:16.263Z,28.70
2017-08-23T11:04:42.579Z,29.40
2017-08-23T11:07:08.862Z,30.20
2017-08-23T11:09:35.124Z,30.70
2017-08-23T11:12:01.440Z,31.20
2017-08-23T11:14:27.675Z,31.60
2017-08-23T11:16:53.949Z,31.60
2017-08-23T11:19:20.186Z,31.70
2017-08-23T11:21:46.428Z,31.80
2017-08-23T11:24:12.691Z,32.00
2017-08-23T11:26:38.929Z,32.10
2017-08-23T11:29:05.577Z,32.10
2017-08-23T11:31:32.451Z,32.20
2017-08-23T11:33:58.729Z,32.40
2017-08-23T11:36:25.028Z,32.30
2017-08-23T11:38:51.310Z,33.00
2017-08-23T11:41:17.681Z,34.30
2017-08-23T11:43:43.967Z,35.60
2017-08-23T11:46:10.263Z,36.50
2017-08-23T11:48:36.827Z,36.90
2017-08-23T11:51:03.126Z,38.10
2017-08-23T11:53:29.393Z,39.90
2017-08-23T11:55:55.707Z,41.60
2017-08-23T11:58:21.974Z,42.80
2017-08-23T12:00:48.406Z,43.50
2017-08-23T12:03:14.668Z,42.70
2017-08-23T12:05:40.962Z,42.10
2017-08-23T12:08:07.296Z,42.50
2017-08-23T12:10:33.585Z,43.70
2017-08-23T12:12:59.867Z,45.70
2017-08-23T12:15:26.167Z,47.50
2017-08-23T12:17:52.466Z,49.80
2017-08-23T12:20:18.764Z,51.70
2017-08-23T12:22:45.056Z,53.10
2017-08-23T12:25:11.719Z,54.50
2017-08-23T12:27:38.009Z,55.20
2017-08-23T12:30:04.291Z,55.20
2017-08-23T12:32:30.606Z,55.60
2017-08-23T12:34:56.900Z,56.40
2017-08-23T12:37:23.217Z,57.00
2017-08-23T12:39:49.494Z,56.90
2017-08-23T12:42:15.793Z,57.70
2017-08-23T12:44:42.097Z,58.30
2017-08-23T12:47:08.384Z,58.70
2017-08-23T12:49:34.704Z,58.90
2017-08-23T12:52:00.962Z,57.80
2017-08-23T12:54:27.257Z,58.00
2017-08-23T12:56:53.550Z,58.80
2017-08-23T12:59:19.843Z,58.60
2017-08-23T13:01:46.126Z,58.20
2017-08-23T13:04:15.338Z,57.50
2017-08-23T13:06:41.918Z,56.50
2017-08-23T13:09:08.199Z,57.20
2017-08-23T13:11:34.474Z,58.00
2017-08-23T13:14:00.788Z,58.00
2017-08-23T13:16:27.118Z,58.00
2017-08-23T13:18:53.415Z,57.30
2017-08-23T13:21:19.709Z,57.30
2017-08-23T13:23:46.288Z,57.70
2017-08-23T13:26:12.580Z,58.50
2017-08-23T13:28:38.881Z,59.30
2017-08-23T13:31:05.194Z,59.30
2017-08-23T13:33:31.504Z,59.50
2017-08-23T13:35:57.796Z,60.20
2017-08-23T13:38:24.094Z,60.50
2017-08-23T13:40:50.373Z,60.60
2017-08-23T13:43:16.687Z,58.90
2017-08-23T13:45:42.982Z,57.20
2017-08-23T13:48:09.310Z,58.10
2017-08-23T13:50:35.614Z,59.10
2017-08-23T13:53:01.919Z,59.20
2017-08-23T13:55:28.219Z,58.10
2017-08-23T13:57:54.487Z,58.50
2017-08-23T14:00:20.786Z,59.10
2017-08-23T14:02:47.094Z,57.70
2017-08-23T14:05:13.399Z,55.70
2017-08-23T14:07:39.675Z,54.90
2017-08-23T14:10:05.985Z,55.30
2017-08-23T14:12:32.281Z,55.60
2017-08-23T14:14:58.589Z,55.70
2017-08-23T14:17:24.946Z,55.70
2017-08-23T14:19:52.173Z,56.40
2017-08-23T14:22:18.491Z,56.70
2017-08-23T14:24:44.780Z,56.20
2017-08-23T14:27:11.114Z,55.40
2017-08-23T14:29:37.425Z,55.90
2017-08-23T14:32:03.723Z,55.10
2017-08-23T14:34:30.014Z,54.50
2017-08-23T14:36:56.303Z,54.80
2017-08-23T14:39:22.630Z,55.70
2017-08-23T14:41:48.946Z,56.10
2017-08-23T14:44:15.260Z,57.20
2017-08-23T14:46:42.414Z,57.00
2017-08-23T14:49:08.713Z,55.50
2017-08-23T14:51:35.077Z,55.80
2017-08-23T14:54:01.410Z,54.90
2017-08-23T14:56:27.724Z,53.90
2017-08-23T14:58:54.020Z,53.20
2017-08-23T15:01:20.330Z,54.10
2017-08-23T15:03:46.613Z,55.40
2017-08-23T15:06:13.942Z,56.20
2017-08-23T15:08:40.254Z,56.50
2017-08-23T15:11:06.600Z,57.00
2017-08-23T15:13:32.912Z,56.30
2017-08-23T15:15:59.231Z,55.90
2017-08-23T15:18:25.547Z,54.70
2017-08-23T15:20:51.863Z,54.20
2017-08-23T15:23:18.167Z,53.60
2017-08-23T15:25:44.457Z,54.10
2017-08-23T15:28:11.037Z,54.40
2017-08-23T15:30:37.336Z,54.60
2017-08-23T15:33:03.654Z,54.30
2017-08-23T15:35:29.951Z,54.00
2017-08-23T15:37:56.230Z,54.00
2017-08-23T15:40:22.547Z,53.90
2017-08-23T15:42:48.838Z,53.40
2017-08-23T15:45:15.134Z,52.70
2017-08-23T15:47:41.420Z,52.10
2017-08-23T15:50:07.741Z,50.80
2017-08-23T15:52:34.021Z,50.00
2017-08-23T15:55:00.301Z,48.40
2017-08-23T15:57:27.518Z,46.50
2017-08-23T15:59:53.797Z,45.20
2017-08-23T16:02:20.127Z,44.00
2017-08-23T16:04:46.571Z,42.40
2017-08-23T16:07:12.904Z,41.10
2017-08-23T16:09:39.220Z,40.00
2017-08-23T16:12:05.566Z,39.10
2017-08-23T16:14:31.859Z,38.40
2017-08-23T16:16:58.525Z,37.50
2017-08-23T16:19:24.848Z,37.10
2017-08-23T16:21:51.163Z,36.50
2017-08-23T16:24:17.476Z,36.90
2017-08-23T16:26:43.749Z,38.50
2017-08-23T16:29:10.102Z,40.00
2017-08-23T16:31:36.666Z,41.10
2017-08-23T16:34:03.011Z,41.20
2017-08-23T16:36:29.793Z,40.40
2017-08-23T16:38:56.091Z,38.10
2017-08-23T16:41:22.390Z,36.10
2017-08-23T16:43:48.688Z,35.00
2017-08-23T16:46:14.989Z,33.90
2017-08-23T16:48:41.305Z,33.50
2017-08-23T16:51:07.635Z,32.90
2017-08-23T16:53:33.939Z,31.80
2017-08-23T16:56:00.232Z,31.40
2017-08-23T16:58:26.507Z,31.20
2017-08-23T17:00:52.809Z,31.10
2017-08-23T17:03:19.110Z,31.00
2017-08-23T17:05:45.415Z,30.90
2017-08-23T17:08:11.667Z,30.70
2017-08-23T17:10:37.981Z,30.60
2017-08-23T17:13:04.236Z,30.30
2017-08-23T17:15:30.513Z,30.20
2017-08-23T17:17:56.802Z,29.90
2017-08-23T17:20:23.079Z,29.70
2017-08-23T17:22:49.385Z,29.50
2017-08-23T17:25:15.675Z,29.30
2017-08-23T17:27:41.982Z,29.10
2017-08-23T17:30:08.303Z,28.90
2017-08-23T17:32:34.612Z,28.80
2017-08-23T17:35:01.387Z,28.60
2017-08-23T17:37:27.670Z,28.40
2017-08-23T17:39:53.987Z,28.30
2017-08-23T17:42:21.101Z,28.10
2017-08-23T17:44:47.441Z,27.90
2017-08-23T17:47:13.751Z,27.80
2017-08-23T17:49:40.054Z,27.60
2017-08-23T17:52:06.380Z,27.40
2017-08-23T17:54:33.706Z,27.20
2017-08-23T17:57:00.036Z,27.00
2017-08-23T17:59:26.318Z,26.80
2017-08-23T18:01:52.626Z,26.60
2017-08-23T18:04:18.900Z,26.40
2017-08-23T18:06:45.204Z,26.30
2017-08-23T18:09:11.502Z,26.10
2017-08-23T18:11:37.795Z,26.00
2017-08-23T18:14:04.095Z,25.80
2017-08-23T18:16:30.398Z,25.60
2017-08-23T18:18:57.119Z,25.50
2017-08-23T18:21:23.418Z,25.30
2017-08-23T18:23:49.754Z,25.10
2017-08-23T18:26:16.090Z,24.90
2017-08-23T18:28:42.419Z,24.80
2017-08-23T18:31:08.738Z,24.70
2017-08-23T18:33:35.093Z,24.50
2017-08-23T18:36:01.482Z,24.50
2017-08-23T18:38:27.798Z,24.40
2017-08-23T18:40:54.183Z,24.30
2017-08-23T18:43:20.537Z,24.10
2017-08-23T18:45:46.912Z,23.90
2017-08-23T18:48:13.323Z,23.70
2017-08-23T18:50:39.639Z,23.70
2017-08-23T18:53:05.932Z,23.50
2017-08-23T18:55:32.316Z,23.40
2017-08-23T18:57:58.651Z,23.20
2017-08-23T19:00:24.946Z,23.10
2017-08-23T19:02:51.283Z,23.20
2017-08-23T19:05:17.662Z,23.20
2017-08-23T19:07:43.939Z,23.10
2017-08-23T19:10:12.009Z,23.10
2017-08-23T19:12:38.428Z,23.00
2017-08-23T19:15:04.755Z,22.90
2017-08-23T19:17:31.137Z,22.90
2017-08-23T19:19:57.520Z,22.90
2017-08-23T19:22:23.928Z,22.90
2017-08-23T19:24:51.510Z,22.90
2017-08-23T19:27:17.808Z,22.80
2017-08-23T19:29:44.131Z,22.70
2017-08-23T19:32:10.445Z,22.70
2017-08-23T19:34:36.806Z,22.40
2017-08-23T19:37:03.204Z,22.30
2017-08-23T19:39:29.567Z,22.30
2017-08-23T19:41:55.944Z,22.30
2017-08-23T19:44:22.354Z,22.20
2017-08-23T19:46:49.011Z,22.20
2017-08-23T19:49:15.299Z,22.00
2017-08-23T19:51:41.609Z,22.10
2017-08-23T19:54:07.919Z,22.00
2017-08-23T19:56:34.255Z,22.00
2017-08-23T19:59:00.653Z,21.90
2017-08-23T20:01:26.978Z,21.90
2017-08-23T20:03:53.648Z,21.90
2017-08-23T20:06:19.967Z,21.90
2017-08-23T20:08:46.276Z,21.90
2017-08-23T20:11:13.408Z,21.90
2017-08-23T20:13:39.916Z,21.80
2017-08-23T20:16:06.451Z,21.70
2017-08-23T20:18:33.249Z,21.70
2017-08-23T20:21:00.874Z,21.60
2017-08-23T20:23:27.571Z,21.50
2017-08-23T20:25:53.898Z,21.30
2017-08-23T20:28:20.326Z,21.40
2017-08-23T20:30:51.967Z,21.40
2017-08-23T20:33:20.200Z,21.40
2017-08-23T20:35:46.489Z,21.40
2017-08-23T20:38:12.826Z,21.30
2017-08-23T20:40:40.155Z,21.30
2017-08-23T20:43:06.477Z,21.20
2017-08-23T20:45:33.650Z,21.20
2017-08-23T20:47:59.951Z,21.20
2017-08-23T20:50:26.309Z,21.10
2017-08-23T20:52:52.629Z,21.10
2017-08-23T20:55:19.722Z,21.10
2017-08-23T20:57:46.064Z,21.10
2017-08-23T21:00:13.189Z,21.10
2017-08-23T21:02:39.536Z,21.00
2017-08-23T21:05:06.213Z,20.90
2017-08-23T21:07:32.653Z,20.70
2017-08-23T21:09:58.960Z,20.50
2017-08-23T21:12:25.285Z,20.60
2017-08-23T21:14:51.607Z,20.40
2017-08-23T21:17:18.617Z,20.40
2017-08-23T21:19:45.504Z,20.30
2017-08-23T21:22:11.913Z,20.40
2017-08-23T21:24:39.881Z,20.40
2017-08-23T21:27:07.591Z,20.40
2017-08-23T21:29:36.436Z,20.30
2017-08-23T21:32:07.040Z,20.10
2017-08-23T21:34:36.311Z,20.10
2017-08-23T21:37:04.856Z,20.00
2017-08-23T21:39:31.922Z,19.90
2017-08-23T21:42:00.261Z,19.90
2017-08-23T21:44:27.850Z,19.90
2017-08-23T21:46:59.918Z,19.80
2017-08-23T21:49:29.556Z,19.60
2017-08-23T21:51:56.525Z,19.60
2017-08-23T21:54:22.866Z,19.60
2017-08-23T21:56:50.099Z,19.50
2017-08-23T21:59:17.499Z,19.50
2017-08-23T22:01:46.494Z,19.40
2017-08-23T22:04:13.786Z,19.40
2017-08-23T22:06:40.872Z,19.50
2017-08-23T22:09:07.899Z,19.50
2017-08-23T22:11:34.226Z,19.50
2017-08-23T22:14:01.458Z,19.50
2017-08-23T22:16:28.388Z,19.60
2017-08-23T22:18:54.688Z,19.70
2017-08-23T22:21:24.035Z,19.70
2017-08-23T22:23:50.702Z,19.70
2017-08-23T22:26:17.878Z,19.80
2017-08-23T22:28:45.205Z,19.80
2017-08-23T22:31:14.095Z,19.80
2017-08-23T22:33:41.754Z,19.70
2017-08-23T22:36:08.060Z,19.60
2017-08-23T22:38:34.363Z,19.60
2017-08-23T22:41:00.677Z,19.50
2017-08-23T22:43:26.992Z,19.30
2017-08-23T22:45:53.921Z,19.40
2017-08-23T22:48:20.230Z,19.40
2017-08-23T22:50:50.256Z,19.40
2017-08-23T22:53:24.555Z,19.40
2017-08-23T22:55:53.899Z,19.50
2017-08-23T22:58:20.981Z,19.40
2017-08-23T23:00:47.265Z,19.40
2017-08-23T23:03:14.339Z,19.40
2017-08-23T23:05:42.345Z,19.40
2017-08-23T23:08:08.686Z,19.40
2017-08-23T23:10:36.004Z,19.40
2017-08-23T23:13:02.894Z,19.30
2017-08-23T23:15:29.798Z,19.40
2017-08-23T23:17:56.101Z,19.40
2017-08-23T23:20:22.992Z,19.30
2017-08-23T23:22:49.285Z,19.40
2017-08-23T23:25:15.618Z,19.30
2017-08-23T23:27:42.598Z,19.30
2017-08-23T23:30:10.491Z,19.20
2017-08-23T23:32:37.468Z,19.10
2017-08-23T23:35:04.077Z,19.20
2017-08-23T23:37:32.315Z,19.00
2017-08-23T23:39:59.374Z,19.10
2017-08-23T23:42:25.739Z,19.10
2017-08-23T23:44:52.072Z,19.20
2017-08-23T23:47:19.288Z,19.20
2017-08-23T23:49:45.592Z,19.20
2017-08-23T23:52:12.591Z,19.20
2017-08-23T23:54:39.143Z,19.00
2017-08-23T23:57:05.492Z,18.90
2017-08-23T23:59:32.414Z,18.90
